sensor_id;sensor_type;location;lat;lon;timestamp;temperature;humidity
53146;DHT22;39042;53.150;5.898;2023-08-20T00:01:34;15.30;99.90
53146;DHT22;39042;53.150;5.898;2023-08-20T00:04:00;15.30;99.90
53146;DHT22;39042;53.150;5.898;2023-08-20T00:06:27;15.30;99.90
53146;DHT22;39042;53.150;5.898;2023-08-20T00:08:52;15.30;99.90
53146;DHT22;39042;53.150;5.898;2023-08-20T00:11:18;15.30;99.90
53146;DHT22;39042;53.150;5.898;2023-08-20T00:13:44;15.20;99.90
53146;DHT22;39042;53.150;5.898;2023-08-20T00:16:10;15.20;99.90
53146;DHT22;39042;53.150;5.898;2023-08-20T00:18:37;15.20;99.90
53146;DHT22;39042;53.150;5.898;2023-08-20T00:21:04;15.20;99.90
53146;DHT22;39042;53.150;5.898;2023-08-20T00:23:30;15.20;99.90
53146;DHT22;39042;53.150;5.898;2023-08-20T00:25:56;15.20;99.90
53146;DHT22;39042;53.150;5.898;2023-08-20T00:28:22;15.10;99.90
53146;DHT22;39042;53.150;5.898;2023-08-20T00:30:48;15.10;99.90
53146;DHT22;39042;53.150;5.898;2023-08-20T00:33:14;15.10;99.90
53146;DHT22;39042;53.150;5.898;2023-08-20T00:35:41;15.10;99.90
53146;DHT22;39042;53.150;5.898;2023-08-20T00:38:08;15.10;99.90
53146;DHT22;39042;53.150;5.898;2023-08-20T00:40:34;15.10;99.90
53146;DHT22;39042;53.150;5.898;2023-08-20T00:43:00;15.10;99.90
53146;DHT22;39042;53.150;5.898;2023-08-20T00:45:27;15.10;99.90
53146;DHT22;39042;53.150;5.898;2023-08-20T00:47:53;15.10;99.90
53146;DHT22;39042;53.150;5.898;2023-08-20T00:50:19;15.10;99.90
53146;DHT22;39042;53.150;5.898;2023-08-20T00:52:46;15.10;99.90
53146;DHT22;39042;53.150;5.898;2023-08-20T00:55:13;15.10;99.90
53146;DHT22;39042;53.150;5.898;2023-08-20T00:57:39;15.10;99.90
53146;DHT22;39042;53.150;5.898;2023-08-20T01:00:05;15.10;99.90
53146;DHT22;39042;53.150;5.898;2023-08-20T01:02:37;15.10;99.90
53146;DHT22;39042;53.150;5.898;2023-08-20T01:05:07;15.00;99.90
53146;DHT22;39042;53.150;5.898;2023-08-20T01:07:43;15.10;99.90
53146;DHT22;39042;53.150;5.898;2023-08-20T01:10:25;15.00;99.90
53146;DHT22;39042;53.150;5.898;2023-08-20T01:12:54;15.10;99.90
53146;DHT22;39042;53.150;5.898;2023-08-20T01:15:20;15.00;99.90
53146;DHT22;39042;53.150;5.898;2023-08-20T01:17:46;15.00;99.90
53146;DHT22;39042;53.150;5.898;2023-08-20T01:20:12;15.00;99.90
53146;DHT22;39042;53.150;5.898;2023-08-20T01:26:11;15.00;99.90
53146;DHT22;39042;53.150;5.898;2023-08-20T01:28:39;15.00;99.90
53146;DHT22;39042;53.150;5.898;2023-08-20T01:31:06;15.00;99.90
53146;DHT22;39042;53.150;5.898;2023-08-20T01:33:31;15.00;99.90
53146;DHT22;39042;53.150;5.898;2023-08-20T01:35:58;15.00;99.90
53146;DHT22;39042;53.150;5.898;2023-08-20T01:38:24;15.00;99.90
53146;DHT22;39042;53.150;5.898;2023-08-20T01:40:50;15.00;99.90
53146;DHT22;39042;53.150;5.898;2023-08-20T01:43:16;15.00;99.90
53146;DHT22;39042;53.150;5.898;2023-08-20T01:45:42;15.00;99.90
53146;DHT22;39042;53.150;5.898;2023-08-20T01:48:07;15.00;99.90
53146;DHT22;39042;53.150;5.898;2023-08-20T01:50:35;14.90;99.90
53146;DHT22;39042;53.150;5.898;2023-08-20T01:53:01;14.90;99.90
53146;DHT22;39042;53.150;5.898;2023-08-20T01:55:29;14.90;99.90
53146;DHT22;39042;53.150;5.898;2023-08-20T01:57:55;14.90;99.90
53146;DHT22;39042;53.150;5.898;2023-08-20T02:00:21;14.90;99.90
53146;DHT22;39042;53.150;5.898;2023-08-20T02:02:46;14.90;99.90
53146;DHT22;39042;53.150;5.898;2023-08-20T02:05:12;14.90;99.90
53146;DHT22;39042;53.150;5.898;2023-08-20T02:07:38;14.90;99.90
53146;DHT22;39042;53.150;5.898;2023-08-20T02:10:05;14.90;99.90
53146;DHT22;39042;53.150;5.898;2023-08-20T02:12:31;14.90;99.90
53146;DHT22;39042;53.150;5.898;2023-08-20T02:14:57;14.80;99.90
53146;DHT22;39042;53.150;5.898;2023-08-20T02:17:22;14.80;99.90
53146;DHT22;39042;53.150;5.898;2023-08-20T02:19:49;14.80;99.90
53146;DHT22;39042;53.150;5.898;2023-08-20T02:22:15;14.80;99.90
53146;DHT22;39042;53.150;5.898;2023-08-20T02:24:42;14.80;99.90
53146;DHT22;39042;53.150;5.898;2023-08-20T02:27:08;14.80;99.90
53146;DHT22;39042;53.150;5.898;2023-08-20T02:29:34;14.90;99.90
53146;DHT22;39042;53.150;5.898;2023-08-20T02:32:00;14.90;99.90
53146;DHT22;39042;53.150;5.898;2023-08-20T02:34:26;14.80;99.90
53146;DHT22;39042;53.150;5.898;2023-08-20T02:36:52;14.80;99.90
53146;DHT22;39042;53.150;5.898;2023-08-20T02:39:17;14.80;99.90
53146;DHT22;39042;53.150;5.898;2023-08-20T02:41:43;14.80;99.90
53146;DHT22;39042;53.150;5.898;2023-08-20T02:44:09;14.80;99.90
53146;DHT22;39042;53.150;5.898;2023-08-20T02:46:35;14.80;99.90
53146;DHT22;39042;53.150;5.898;2023-08-20T02:49:01;14.80;99.90
53146;DHT22;39042;53.150;5.898;2023-08-20T02:51:27;14.80;99.90
53146;DHT22;39042;53.150;5.898;2023-08-20T02:53:53;14.80;99.90
53146;DHT22;39042;53.150;5.898;2023-08-20T02:56:19;14.80;99.90
53146;DHT22;39042;53.150;5.898;2023-08-20T02:58:45;14.80;99.90
53146;DHT22;39042;53.150;5.898;2023-08-20T03:01:19;14.80;99.90
53146;DHT22;39042;53.150;5.898;2023-08-20T03:03:45;14.80;99.90
53146;DHT22;39042;53.150;5.898;2023-08-20T03:06:11;14.70;99.90
53146;DHT22;39042;53.150;5.898;2023-08-20T03:08:37;14.70;99.90
53146;DHT22;39042;53.150;5.898;2023-08-20T03:11:03;14.70;99.90
53146;DHT22;39042;53.150;5.898;2023-08-20T03:13:29;14.70;99.90
53146;DHT22;39042;53.150;5.898;2023-08-20T03:15:55;14.60;99.90
53146;DHT22;39042;53.150;5.898;2023-08-20T03:18:21;14.60;99.90
53146;DHT22;39042;53.150;5.898;2023-08-20T03:20:47;14.70;99.90
53146;DHT22;39042;53.150;5.898;2023-08-20T03:23:13;14.60;99.90
53146;DHT22;39042;53.150;5.898;2023-08-20T03:25:39;14.60;99.90
53146;DHT22;39042;53.150;5.898;2023-08-20T03:28:05;14.60;99.90
53146;DHT22;39042;53.150;5.898;2023-08-20T03:30:31;14.60;99.90
53146;DHT22;39042;53.150;5.898;2023-08-20T03:32:57;14.60;99.90
53146;DHT22;39042;53.150;5.898;2023-08-20T03:35:24;14.60;99.90
53146;DHT22;39042;53.150;5.898;2023-08-20T03:37:50;14.60;99.90
53146;DHT22;39042;53.150;5.898;2023-08-20T03:40:16;14.60;99.90
53146;DHT22;39042;53.150;5.898;2023-08-20T03:42:44;14.60;99.90
53146;DHT22;39042;53.150;5.898;2023-08-20T03:45:10;14.60;99.90
53146;DHT22;39042;53.150;5.898;2023-08-20T03:47:36;14.60;99.90
53146;DHT22;39042;53.150;5.898;2023-08-20T03:50:03;14.60;99.90
53146;DHT22;39042;53.150;5.898;2023-08-20T03:52:29;14.60;99.90
53146;DHT22;39042;53.150;5.898;2023-08-20T03:54:56;14.60;99.90
53146;DHT22;39042;53.150;5.898;2023-08-20T03:57:22;14.50;99.90
53146;DHT22;39042;53.150;5.898;2023-08-20T03:59:49;14.50;99.90
53146;DHT22;39042;53.150;5.898;2023-08-20T04:02:15;14.50;99.90
53146;DHT22;39042;53.150;5.898;2023-08-20T04:04:42;14.50;99.90
53146;DHT22;39042;53.150;5.898;2023-08-20T04:07:08;14.50;99.90
53146;DHT22;39042;53.150;5.898;2023-08-20T04:09:33;14.50;99.90
53146;DHT22;39042;53.150;5.898;2023-08-20T04:12:00;14.50;99.90
53146;DHT22;39042;53.150;5.898;2023-08-20T04:14:26;14.50;99.90
53146;DHT22;39042;53.150;5.898;2023-08-20T04:16:52;14.40;99.90
53146;DHT22;39042;53.150;5.898;2023-08-20T04:19:18;14.40;99.90
53146;DHT22;39042;53.150;5.898;2023-08-20T04:21:44;14.40;99.90
53146;DHT22;39042;53.150;5.898;2023-08-20T04:24:10;14.50;99.90
53146;DHT22;39042;53.150;5.898;2023-08-20T04:26:36;14.50;99.90
53146;DHT22;39042;53.150;5.898;2023-08-20T04:29:03;14.50;99.90
53146;DHT22;39042;53.150;5.898;2023-08-20T04:31:29;14.50;99.90
53146;DHT22;39042;53.150;5.898;2023-08-20T04:34:01;14.50;99.90
53146;DHT22;39042;53.150;5.898;2023-08-20T04:36:56;14.60;99.90
53146;DHT22;39042;53.150;5.898;2023-08-20T04:39:22;14.60;99.90
53146;DHT22;39042;53.150;5.898;2023-08-20T04:41:51;14.60;99.90
53146;DHT22;39042;53.150;5.898;2023-08-20T04:44:18;14.70;99.90
53146;DHT22;39042;53.150;5.898;2023-08-20T04:46:45;14.70;99.90
53146;DHT22;39042;53.150;5.898;2023-08-20T04:49:12;14.80;99.90
53146;DHT22;39042;53.150;5.898;2023-08-20T04:51:38;14.80;99.90
53146;DHT22;39042;53.150;5.898;2023-08-20T04:54:04;14.80;99.90
53146;DHT22;39042;53.150;5.898;2023-08-20T04:56:30;14.90;99.90
53146;DHT22;39042;53.150;5.898;2023-08-20T04:58:56;14.90;99.90
53146;DHT22;39042;53.150;5.898;2023-08-20T05:01:41;15.00;99.90
53146;DHT22;39042;53.150;5.898;2023-08-20T05:04:08;15.00;99.90
53146;DHT22;39042;53.150;5.898;2023-08-20T05:06:34;15.00;99.90
53146;DHT22;39042;53.150;5.898;2023-08-20T05:09:00;15.10;99.90
53146;DHT22;39042;53.150;5.898;2023-08-20T05:11:25;15.10;99.90
53146;DHT22;39042;53.150;5.898;2023-08-20T05:13:51;15.10;99.90
53146;DHT22;39042;53.150;5.898;2023-08-20T05:16:18;15.20;99.90
53146;DHT22;39042;53.150;5.898;2023-08-20T05:18:44;15.20;99.90
53146;DHT22;39042;53.150;5.898;2023-08-20T05:21:10;15.30;99.90
53146;DHT22;39042;53.150;5.898;2023-08-20T05:23:40;15.30;99.90
53146;DHT22;39042;53.150;5.898;2023-08-20T05:26:06;15.40;99.90
53146;DHT22;39042;53.150;5.898;2023-08-20T05:28:33;15.40;99.90
53146;DHT22;39042;53.150;5.898;2023-08-20T05:30:59;15.50;99.90
53146;DHT22;39042;53.150;5.898;2023-08-20T05:33:26;15.50;99.90
53146;DHT22;39042;53.150;5.898;2023-08-20T05:35:53;15.60;99.90
53146;DHT22;39042;53.150;5.898;2023-08-20T05:38:20;15.60;99.90
53146;DHT22;39042;53.150;5.898;2023-08-20T05:40:48;15.70;99.90
53146;DHT22;39042;53.150;5.898;2023-08-20T05:43:13;15.80;99.90
53146;DHT22;39042;53.150;5.898;2023-08-20T05:45:40;15.90;99.90
53146;DHT22;39042;53.150;5.898;2023-08-20T05:48:08;16.00;99.90
53146;DHT22;39042;53.150;5.898;2023-08-20T05:50:34;16.10;99.90
53146;DHT22;39042;53.150;5.898;2023-08-20T05:53:00;16.20;99.90
53146;DHT22;39042;53.150;5.898;2023-08-20T05:55:28;16.20;99.90
53146;DHT22;39042;53.150;5.898;2023-08-20T05:57:55;16.30;99.90
53146;DHT22;39042;53.150;5.898;2023-08-20T06:00:21;16.40;99.90
53146;DHT22;39042;53.150;5.898;2023-08-20T06:02:47;16.50;99.90
53146;DHT22;39042;53.150;5.898;2023-08-20T06:05:13;16.60;99.90
53146;DHT22;39042;53.150;5.898;2023-08-20T06:07:39;16.60;99.90
53146;DHT22;39042;53.150;5.898;2023-08-20T06:10:06;16.70;99.90
53146;DHT22;39042;53.150;5.898;2023-08-20T06:12:32;16.80;99.90
53146;DHT22;39042;53.150;5.898;2023-08-20T06:14:58;16.90;99.90
53146;DHT22;39042;53.150;5.898;2023-08-20T06:17:24;16.90;99.90
53146;DHT22;39042;53.150;5.898;2023-08-20T06:19:50;17.10;99.90
53146;DHT22;39042;53.150;5.898;2023-08-20T06:22:15;17.10;99.90
53146;DHT22;39042;53.150;5.898;2023-08-20T06:24:41;17.20;99.90
53146;DHT22;39042;53.150;5.898;2023-08-20T06:27:07;17.30;99.90
53146;DHT22;39042;53.150;5.898;2023-08-20T06:29:33;17.40;99.90
53146;DHT22;39042;53.150;5.898;2023-08-20T06:31:59;17.40;99.90
53146;DHT22;39042;53.150;5.898;2023-08-20T06:34:25;17.40;99.90
53146;DHT22;39042;53.150;5.898;2023-08-20T06:36:52;17.50;99.90
53146;DHT22;39042;53.150;5.898;2023-08-20T06:39:18;17.60;99.90
53146;DHT22;39042;53.150;5.898;2023-08-20T06:41:45;17.70;99.90
53146;DHT22;39042;53.150;5.898;2023-08-20T06:44:19;17.80;99.90
53146;DHT22;39042;53.150;5.898;2023-08-20T06:46:45;17.90;99.90
53146;DHT22;39042;53.150;5.898;2023-08-20T06:49:11;17.90;99.90
53146;DHT22;39042;53.150;5.898;2023-08-20T06:51:36;18.00;99.90
53146;DHT22;39042;53.150;5.898;2023-08-20T06:54:03;18.00;99.90
53146;DHT22;39042;53.150;5.898;2023-08-20T06:56:32;18.10;99.90
53146;DHT22;39042;53.150;5.898;2023-08-20T06:58:57;18.20;99.90
53146;DHT22;39042;53.150;5.898;2023-08-20T07:01:23;18.30;99.90
53146;DHT22;39042;53.150;5.898;2023-08-20T07:03:49;18.40;99.90
53146;DHT22;39042;53.150;5.898;2023-08-20T07:06:15;18.40;99.90
53146;DHT22;39042;53.150;5.898;2023-08-20T07:08:44;18.50;99.90
53146;DHT22;39042;53.150;5.898;2023-08-20T07:11:10;18.50;99.90
53146;DHT22;39042;53.150;5.898;2023-08-20T07:13:36;18.60;99.90
53146;DHT22;39042;53.150;5.898;2023-08-20T07:16:02;18.60;99.90
53146;DHT22;39042;53.150;5.898;2023-08-20T07:18:28;18.70;99.90
53146;DHT22;39042;53.150;5.898;2023-08-20T07:20:55;18.80;99.90
53146;DHT22;39042;53.150;5.898;2023-08-20T07:23:21;18.80;99.90
53146;DHT22;39042;53.150;5.898;2023-08-20T07:25:47;18.90;99.90
53146;DHT22;39042;53.150;5.898;2023-08-20T07:28:14;18.90;99.90
53146;DHT22;39042;53.150;5.898;2023-08-20T07:30:40;18.90;99.90
53146;DHT22;39042;53.150;5.898;2023-08-20T07:33:07;19.00;99.90
53146;DHT22;39042;53.150;5.898;2023-08-20T07:35:33;19.00;99.90
53146;DHT22;39042;53.150;5.898;2023-08-20T07:37:59;19.10;99.90
53146;DHT22;39042;53.150;5.898;2023-08-20T07:40:25;19.20;99.90
53146;DHT22;39042;53.150;5.898;2023-08-20T07:42:51;19.30;99.90
53146;DHT22;39042;53.150;5.898;2023-08-20T07:45:17;19.30;99.90
53146;DHT22;39042;53.150;5.898;2023-08-20T07:47:42;19.30;99.90
53146;DHT22;39042;53.150;5.898;2023-08-20T07:50:08;19.50;99.90
53146;DHT22;39042;53.150;5.898;2023-08-20T07:52:34;19.50;99.90
53146;DHT22;39042;53.150;5.898;2023-08-20T07:55:00;19.60;99.90
53146;DHT22;39042;53.150;5.898;2023-08-20T07:57:26;19.60;99.90
53146;DHT22;39042;53.150;5.898;2023-08-20T07:59:52;19.70;99.90
53146;DHT22;39042;53.150;5.898;2023-08-20T08:02:18;19.70;99.90
53146;DHT22;39042;53.150;5.898;2023-08-20T08:04:44;19.80;99.90
53146;DHT22;39042;53.150;5.898;2023-08-20T08:07:10;19.80;99.90
53146;DHT22;39042;53.150;5.898;2023-08-20T08:09:37;19.90;99.90
53146;DHT22;39042;53.150;5.898;2023-08-20T08:12:03;20.10;99.90
53146;DHT22;39042;53.150;5.898;2023-08-20T08:14:30;20.10;99.90
53146;DHT22;39042;53.150;5.898;2023-08-20T08:16:56;20.20;99.90
53146;DHT22;39042;53.150;5.898;2023-08-20T08:19:22;20.30;99.90
53146;DHT22;39042;53.150;5.898;2023-08-20T08:21:48;20.30;99.90
53146;DHT22;39042;53.150;5.898;2023-08-20T08:24:14;20.40;99.90
53146;DHT22;39042;53.150;5.898;2023-08-20T08:26:40;20.50;99.90
53146;DHT22;39042;53.150;5.898;2023-08-20T08:29:07;20.50;99.90
53146;DHT22;39042;53.150;5.898;2023-08-20T08:31:33;20.60;99.90
53146;DHT22;39042;53.150;5.898;2023-08-20T08:33:59;20.70;99.90
53146;DHT22;39042;53.150;5.898;2023-08-20T08:36:25;20.70;99.90
53146;DHT22;39042;53.150;5.898;2023-08-20T08:38:52;20.80;99.90
53146;DHT22;39042;53.150;5.898;2023-08-20T08:41:21;20.80;99.90
53146;DHT22;39042;53.150;5.898;2023-08-20T08:43:47;20.90;99.90
53146;DHT22;39042;53.150;5.898;2023-08-20T08:46:14;20.90;99.90
53146;DHT22;39042;53.150;5.898;2023-08-20T08:48:44;21.00;99.90
53146;DHT22;39042;53.150;5.898;2023-08-20T08:51:12;21.00;99.90
53146;DHT22;39042;53.150;5.898;2023-08-20T08:53:38;21.10;99.90
53146;DHT22;39042;53.150;5.898;2023-08-20T08:56:04;21.10;99.90
53146;DHT22;39042;53.150;5.898;2023-08-20T08:58:32;21.20;99.90
53146;DHT22;39042;53.150;5.898;2023-08-20T09:00:58;21.30;99.90
53146;DHT22;39042;53.150;5.898;2023-08-20T09:03:24;21.30;99.90
53146;DHT22;39042;53.150;5.898;2023-08-20T09:06:07;21.30;99.90
53146;DHT22;39042;53.150;5.898;2023-08-20T09:08:33;21.40;99.90
53146;DHT22;39042;53.150;5.898;2023-08-20T09:11:01;21.40;99.90
53146;DHT22;39042;53.150;5.898;2023-08-20T09:13:38;21.40;99.90
53146;DHT22;39042;53.150;5.898;2023-08-20T09:16:09;21.40;99.90
53146;DHT22;39042;53.150;5.898;2023-08-20T09:18:44;21.40;99.90
53146;DHT22;39042;53.150;5.898;2023-08-20T09:21:13;21.50;99.90
53146;DHT22;39042;53.150;5.898;2023-08-20T09:23:39;21.50;99.90
53146;DHT22;39042;53.150;5.898;2023-08-20T09:26:06;21.60;99.90
53146;DHT22;39042;53.150;5.898;2023-08-20T09:28:45;21.60;99.90
53146;DHT22;39042;53.150;5.898;2023-08-20T09:31:12;21.60;99.90
53146;DHT22;39042;53.150;5.898;2023-08-20T09:33:59;21.60;99.90
53146;DHT22;39042;53.150;5.898;2023-08-20T09:36:33;21.80;99.90
53146;DHT22;39042;53.150;5.898;2023-08-20T09:39:01;21.80;99.90
53146;DHT22;39042;53.150;5.898;2023-08-20T09:41:27;21.90;99.90
53146;DHT22;39042;53.150;5.898;2023-08-20T09:43:57;22.00;99.90
53146;DHT22;39042;53.150;5.898;2023-08-20T09:46:27;22.10;99.90
53146;DHT22;39042;53.150;5.898;2023-08-20T09:48:57;22.10;99.90
53146;DHT22;39042;53.150;5.898;2023-08-20T09:51:32;22.20;99.90
53146;DHT22;39042;53.150;5.898;2023-08-20T09:54:11;22.30;99.90
53146;DHT22;39042;53.150;5.898;2023-08-20T09:56:39;22.40;99.90
53146;DHT22;39042;53.150;5.898;2023-08-20T09:59:06;22.70;99.90
53146;DHT22;39042;53.150;5.898;2023-08-20T10:01:33;22.90;99.90
53146;DHT22;39042;53.150;5.898;2023-08-20T10:04:00;23.10;99.90
53146;DHT22;39042;53.150;5.898;2023-08-20T10:06:27;23.20;99.90
53146;DHT22;39042;53.150;5.898;2023-08-20T10:08:54;23.30;99.90
53146;DHT22;39042;53.150;5.898;2023-08-20T10:11:19;23.40;99.90
53146;DHT22;39042;53.150;5.898;2023-08-20T10:13:45;23.40;99.90
53146;DHT22;39042;53.150;5.898;2023-08-20T10:16:12;23.30;99.90
53146;DHT22;39042;53.150;5.898;2023-08-20T10:18:39;23.30;99.90
53146;DHT22;39042;53.150;5.898;2023-08-20T10:21:05;23.30;99.90
53146;DHT22;39042;53.150;5.898;2023-08-20T10:23:34;23.40;99.90
53146;DHT22;39042;53.150;5.898;2023-08-20T10:26:10;23.60;99.90
53146;DHT22;39042;53.150;5.898;2023-08-20T10:28:36;23.70;99.90
53146;DHT22;39042;53.150;5.898;2023-08-20T10:31:06;23.70;99.90
53146;DHT22;39042;53.150;5.898;2023-08-20T10:33:38;23.60;99.90
53146;DHT22;39042;53.150;5.898;2023-08-20T10:36:17;23.70;99.90
53146;DHT22;39042;53.150;5.898;2023-08-20T10:38:47;23.70;99.90
53146;DHT22;39042;53.150;5.898;2023-08-20T10:41:13;23.80;99.90
53146;DHT22;39042;53.150;5.898;2023-08-20T10:43:49;23.90;99.90
53146;DHT22;39042;53.150;5.898;2023-08-20T10:46:19;24.00;99.90
53146;DHT22;39042;53.150;5.898;2023-08-20T10:48:55;24.10;99.90
53146;DHT22;39042;53.150;5.898;2023-08-20T10:51:27;24.00;99.90
53146;DHT22;39042;53.150;5.898;2023-08-20T10:54:06;23.90;99.90
53146;DHT22;39042;53.150;5.898;2023-08-20T10:56:43;23.80;99.90
53146;DHT22;39042;53.150;5.898;2023-08-20T10:59:29;23.60;99.90
53146;DHT22;39042;53.150;5.898;2023-08-20T11:01:57;23.60;99.90
53146;DHT22;39042;53.150;5.898;2023-08-20T11:04:24;23.60;99.90
53146;DHT22;39042;53.150;5.898;2023-08-20T11:06:57;23.50;99.90
53146;DHT22;39042;53.150;5.898;2023-08-20T11:09:28;23.60;99.90
53146;DHT22;39042;53.150;5.898;2023-08-20T11:11:55;23.60;99.90
53146;DHT22;39042;53.150;5.898;2023-08-20T11:14:21;23.50;99.90
53146;DHT22;39042;53.150;5.898;2023-08-20T11:16:48;23.50;99.90
53146;DHT22;39042;53.150;5.898;2023-08-20T11:19:18;23.40;99.90
53146;DHT22;39042;53.150;5.898;2023-08-20T11:21:44;23.40;99.90
53146;DHT22;39042;53.150;5.898;2023-08-20T11:24:11;23.40;99.90
53146;DHT22;39042;53.150;5.898;2023-08-20T11:26:41;23.40;99.90
53146;DHT22;39042;53.150;5.898;2023-08-20T11:29:09;23.40;99.90
53146;DHT22;39042;53.150;5.898;2023-08-20T11:31:36;23.50;99.90
53146;DHT22;39042;53.150;5.898;2023-08-20T11:34:03;23.50;99.90
53146;DHT22;39042;53.150;5.898;2023-08-20T11:36:29;23.50;99.90
53146;DHT22;39042;53.150;5.898;2023-08-20T11:38:55;23.50;99.90
53146;DHT22;39042;53.150;5.898;2023-08-20T11:41:22;23.50;99.90
53146;DHT22;39042;53.150;5.898;2023-08-20T11:43:49;23.50;99.90
53146;DHT22;39042;53.150;5.898;2023-08-20T11:46:17;23.50;99.90
53146;DHT22;39042;53.150;5.898;2023-08-20T11:49:05;23.50;99.90
53146;DHT22;39042;53.150;5.898;2023-08-20T11:51:38;23.50;99.90
53146;DHT22;39042;53.150;5.898;2023-08-20T11:54:09;23.60;99.90
53146;DHT22;39042;53.150;5.898;2023-08-20T11:56:35;23.60;99.90
53146;DHT22;39042;53.150;5.898;2023-08-20T11:59:01;23.70;99.90
53146;DHT22;39042;53.150;5.898;2023-08-20T12:01:31;23.80;99.90
53146;DHT22;39042;53.150;5.898;2023-08-20T12:04:03;23.80;99.90
53146;DHT22;39042;53.150;5.898;2023-08-20T12:06:29;23.80;99.90
53146;DHT22;39042;53.150;5.898;2023-08-20T12:08:59;23.90;99.90
53146;DHT22;39042;53.150;5.898;2023-08-20T12:11:29;23.90;99.90
53146;DHT22;39042;53.150;5.898;2023-08-20T12:13:56;24.00;99.90
53146;DHT22;39042;53.150;5.898;2023-08-20T12:16:22;24.00;99.90
53146;DHT22;39042;53.150;5.898;2023-08-20T12:18:49;23.90;99.90
53146;DHT22;39042;53.150;5.898;2023-08-20T12:21:15;23.90;99.90
53146;DHT22;39042;53.150;5.898;2023-08-20T12:23:41;23.90;99.90
53146;DHT22;39042;53.150;5.898;2023-08-20T12:26:07;24.00;99.90
53146;DHT22;39042;53.150;5.898;2023-08-20T12:28:34;24.00;99.90
53146;DHT22;39042;53.150;5.898;2023-08-20T12:31:00;24.00;99.90
53146;DHT22;39042;53.150;5.898;2023-08-20T12:33:26;24.00;99.90
53146;DHT22;39042;53.150;5.898;2023-08-20T12:35:54;23.90;99.90
53146;DHT22;39042;53.150;5.898;2023-08-20T12:38:20;23.80;99.90
53146;DHT22;39042;53.150;5.898;2023-08-20T12:40:46;23.80;99.90
53146;DHT22;39042;53.150;5.898;2023-08-20T12:43:12;23.90;99.90
53146;DHT22;39042;53.150;5.898;2023-08-20T12:45:38;23.90;99.90
53146;DHT22;39042;53.150;5.898;2023-08-20T12:48:04;23.90;99.90
53146;DHT22;39042;53.150;5.898;2023-08-20T12:50:30;23.90;99.90
53146;DHT22;39042;53.150;5.898;2023-08-20T12:52:56;23.90;99.90
53146;DHT22;39042;53.150;5.898;2023-08-20T12:55:22;24.00;99.90
53146;DHT22;39042;53.150;5.898;2023-08-20T12:57:54;24.00;99.90
53146;DHT22;39042;53.150;5.898;2023-08-20T13:00:21;24.10;99.90
53146;DHT22;39042;53.150;5.898;2023-08-20T13:02:47;24.10;99.90
53146;DHT22;39042;53.150;5.898;2023-08-20T13:05:14;24.20;99.90
53146;DHT22;39042;53.150;5.898;2023-08-20T13:07:40;24.30;99.90
53146;DHT22;39042;53.150;5.898;2023-08-20T13:10:06;24.30;99.90
53146;DHT22;39042;53.150;5.898;2023-08-20T13:12:34;24.30;99.90
53146;DHT22;39042;53.150;5.898;2023-08-20T13:15:00;24.30;99.90
53146;DHT22;39042;53.150;5.898;2023-08-20T13:17:27;24.20;99.90
53146;DHT22;39042;53.150;5.898;2023-08-20T13:19:53;24.20;99.90
53146;DHT22;39042;53.150;5.898;2023-08-20T13:22:19;24.30;99.90
53146;DHT22;39042;53.150;5.898;2023-08-20T13:24:45;24.30;99.90
53146;DHT22;39042;53.150;5.898;2023-08-20T13:27:10;24.40;99.90
53146;DHT22;39042;53.150;5.898;2023-08-20T13:29:36;24.30;99.90
53146;DHT22;39042;53.150;5.898;2023-08-20T13:32:02;24.30;99.90
53146;DHT22;39042;53.150;5.898;2023-08-20T13:34:28;24.40;99.90
53146;DHT22;39042;53.150;5.898;2023-08-20T13:36:54;24.40;99.90
53146;DHT22;39042;53.150;5.898;2023-08-20T13:39:20;24.40;99.90
53146;DHT22;39042;53.150;5.898;2023-08-20T13:41:48;24.30;99.90
53146;DHT22;39042;53.150;5.898;2023-08-20T13:44:14;24.20;99.90
53146;DHT22;39042;53.150;5.898;2023-08-20T13:46:40;24.10;99.90
53146;DHT22;39042;53.150;5.898;2023-08-20T13:49:06;24.10;99.90
53146;DHT22;39042;53.150;5.898;2023-08-20T13:51:32;24.20;99.90
53146;DHT22;39042;53.150;5.898;2023-08-20T13:53:58;24.20;99.90
53146;DHT22;39042;53.150;5.898;2023-08-20T13:56:26;24.10;99.90
53146;DHT22;39042;53.150;5.898;2023-08-20T13:58:52;24.10;99.90
53146;DHT22;39042;53.150;5.898;2023-08-20T14:01:18;24.10;99.90
53146;DHT22;39042;53.150;5.898;2023-08-20T14:03:44;24.10;99.90
53146;DHT22;39042;53.150;5.898;2023-08-20T14:06:12;24.10;99.90
53146;DHT22;39042;53.150;5.898;2023-08-20T14:08:38;24.10;99.90
53146;DHT22;39042;53.150;5.898;2023-08-20T14:11:04;24.20;99.90
53146;DHT22;39042;53.150;5.898;2023-08-20T14:13:30;24.20;99.90
53146;DHT22;39042;53.150;5.898;2023-08-20T14:15:56;24.20;99.90
53146;DHT22;39042;53.150;5.898;2023-08-20T14:18:22;24.20;99.90
53146;DHT22;39042;53.150;5.898;2023-08-20T14:20:48;24.20;99.90
53146;DHT22;39042;53.150;5.898;2023-08-20T14:23:14;24.10;99.90
53146;DHT22;39042;53.150;5.898;2023-08-20T14:25:39;24.10;99.90
53146;DHT22;39042;53.150;5.898;2023-08-20T14:28:08;24.10;99.90
53146;DHT22;39042;53.150;5.898;2023-08-20T14:30:38;24.10;99.90
53146;DHT22;39042;53.150;5.898;2023-08-20T14:33:04;24.10;99.90
53146;DHT22;39042;53.150;5.898;2023-08-20T14:35:31;24.20;99.90
53146;DHT22;39042;53.150;5.898;2023-08-20T14:37:57;24.20;99.90
53146;DHT22;39042;53.150;5.898;2023-08-20T14:40:23;24.20;99.90
53146;DHT22;39042;53.150;5.898;2023-08-20T14:42:49;24.10;99.90
53146;DHT22;39042;53.150;5.898;2023-08-20T14:45:15;24.20;99.90
53146;DHT22;39042;53.150;5.898;2023-08-20T14:47:41;24.10;99.90
53146;DHT22;39042;53.150;5.898;2023-08-20T14:50:07;24.10;99.90
53146;DHT22;39042;53.150;5.898;2023-08-20T14:52:34;24.20;99.90
53146;DHT22;39042;53.150;5.898;2023-08-20T14:55:00;24.10;99.90
53146;DHT22;39042;53.150;5.898;2023-08-20T14:57:26;24.10;99.90
53146;DHT22;39042;53.150;5.898;2023-08-20T14:59:52;24.00;99.90
53146;DHT22;39042;53.150;5.898;2023-08-20T15:02:20;24.00;99.90
53146;DHT22;39042;53.150;5.898;2023-08-20T15:04:47;24.00;99.90
53146;DHT22;39042;53.150;5.898;2023-08-20T15:07:13;24.10;99.90
53146;DHT22;39042;53.150;5.898;2023-08-20T15:09:38;24.10;99.90
53146;DHT22;39042;53.150;5.898;2023-08-20T15:12:05;24.10;99.90
53146;DHT22;39042;53.150;5.898;2023-08-20T15:14:31;24.10;99.90
53146;DHT22;39042;53.150;5.898;2023-08-20T15:16:56;24.10;99.90
53146;DHT22;39042;53.150;5.898;2023-08-20T15:19:22;24.10;99.90
53146;DHT22;39042;53.150;5.898;2023-08-20T15:21:48;24.10;99.90
53146;DHT22;39042;53.150;5.898;2023-08-20T15:24:14;24.00;99.90
53146;DHT22;39042;53.150;5.898;2023-08-20T15:26:40;24.00;99.90
53146;DHT22;39042;53.150;5.898;2023-08-20T15:29:05;24.00;99.90
53146;DHT22;39042;53.150;5.898;2023-08-20T15:31:31;24.00;99.90
53146;DHT22;39042;53.150;5.898;2023-08-20T15:33:57;24.00;99.90